Sultan Ismail Petra Airport
WMKC : now visible

Airfield :











YOU CAN JOIN US ON...

 
LOGIN :

Register | Disclaimer

   EN    FR    IT 

 









Legend :    VFR   Marginal VFR   IFR   Intensive IFR   Very Intensive IFR
Visi :
Ceiling :
>= 8 km
>= 3000ft
5 to 8 km
1000 to 3000 ft
1500m to 5 km
500 to 1000 ft
800 to 1500m
200 to 500 ft
< 800m
< 200 ft
Symbols :   Thunderstorms  Fog  Heavy snow  Heavy precipitations  Wind > 20 kt






- Airport Elevation : 16 ft
- IATA code : KBR


WMKC - Sultan Ismail Petra

CURRENT METAR :
  • 191300Z 10006KT 060V170 9999 FEW010 FEW017CB SCT140 BKN280 28/24 Q1010

EXPIRED METARs :
  • 191200Z 10007KT 060V170 9999 FEW010 FEW017CB SCT140 BKN280 28/24 Q1010
  • 191100Z 10006KT 050V160 9999 FEW008 SCT140 BKN280 28/24 Q1009

TAF TAF WMKC
Valid from the 19 at 12:00 until the 20 at 12:00 UTC


191100Z 1912/2012 10008KT 9999 FEW018
TEMPO 2002/2007 7000 -RA FEW010 FEW017CB



MET'MAP, your aeronautical weather chart ! - Copyright ORBIFLY December 2007 - Disclaimer

ORBIFLY MET'MAP TEAM :

Programming & Development : Alexandra Zaïnal
Concept & Development : Baudouin d'Aumeries
Co-Development & Prog : Marc-Olivier Méhu
Technical & hardware support : Manuel Goepfert

Contact : metmap@orbifly.com




SOURCES & CREDITS :

   NOAA       Earth
Advisory